createdAt,value
2019-05-10T00:01:26.713Z,16.8
2019-05-10T00:11:26.558Z,14.1
2019-05-10T00:21:26.338Z,14.9
2019-05-10T00:31:26.230Z,15.2
2019-05-10T00:41:26.384Z,17.6
2019-05-10T00:51:25.881Z,18.9
2019-05-10T01:01:26.356Z,17.9
2019-05-10T01:11:26.179Z,17.0
2019-05-10T01:21:26.553Z,18.3
2019-05-10T01:31:26.207Z,17.6
2019-05-10T01:41:26.325Z,17.2
2019-05-10T01:51:27.876Z,16.1
2019-05-10T02:01:25.975Z,16.0
2019-05-10T02:11:28.610Z,15.3
2019-05-10T02:21:26.187Z,15.7
2019-05-10T02:31:26.030Z,14.6
2019-05-10T02:41:27.007Z,14.9
2019-05-10T02:51:26.161Z,14.9
2019-05-10T03:01:25.844Z,13.8
2019-05-10T03:11:26.544Z,12.3
2019-05-10T03:21:26.349Z,13.9
2019-05-10T03:31:26.140Z,13.4
2019-05-10T03:41:25.827Z,14.0
2019-05-10T03:51:26.860Z,13.2
2019-05-10T04:01:26.477Z,14.0
2019-05-10T04:11:26.114Z,13.2
2019-05-10T04:21:25.988Z,14.6
2019-05-10T04:31:27.377Z,14.9
2019-05-10T04:41:26.308Z,17.0
2019-05-10T04:51:26.412Z,14.6
2019-05-10T05:01:26.025Z,14.1
2019-05-10T05:11:26.931Z,10.8
2019-05-10T05:21:25.670Z,12.5
2019-05-10T05:31:26.527Z,11.2
2019-05-10T05:41:26.052Z,12.5
2019-05-10T05:51:28.288Z,12.8
2019-05-10T06:01:29.471Z,12.2
2019-05-10T06:11:29.610Z,10.0
2019-05-10T06:21:26.853Z,9.3
2019-05-10T06:31:26.797Z,7.5
2019-05-10T06:41:26.849Z,6.1
2019-05-10T06:51:26.888Z,5.6
2019-05-10T07:01:26.852Z,6.1
2019-05-10T07:11:29.699Z,5.7
2019-05-10T07:21:26.401Z,5.5
2019-05-10T07:31:27.422Z,5.0
2019-05-10T07:41:27.019Z,5.1
2019-05-10T07:51:28.540Z,5.6
2019-05-10T08:01:32.032Z,5.3
2019-05-10T08:11:28.522Z,3.6
2019-05-10T08:21:26.680Z,3.4
2019-05-10T08:31:31.123Z,4.1
2019-05-10T08:41:27.521Z,4.5
2019-05-10T08:51:27.200Z,3.9
2019-05-10T09:01:30.031Z,4.7
2019-05-10T09:11:27.247Z,5.1
2019-05-10T09:21:26.646Z,5.5
2019-05-10T09:31:26.701Z,4.7
2019-05-10T09:41:27.558Z,4.5
2019-05-10T09:51:30.016Z,3.8
2019-05-10T10:01:28.144Z,3.2
2019-05-10T10:11:27.771Z,2.6
2019-05-10T10:21:32.796Z,2.7
2019-05-10T10:31:32.497Z,2.6
2019-05-10T10:41:31.476Z,5.4
2019-05-10T10:51:31.951Z,2.7
2019-05-10T11:01:33.149Z,2.7
2019-05-10T11:11:30.301Z,2.4
2019-05-10T11:21:28.572Z,2.8
2019-05-10T11:31:26.398Z,2.1
2019-05-10T11:41:27.449Z,1.7
2019-05-10T11:51:27.063Z,2.1
2019-05-10T12:01:27.011Z,2.2
2019-05-10T12:21:25.467Z,2.3
2019-05-10T12:26:15.238Z,2.3
2019-05-10T12:31:25.330Z,2.4
2019-05-10T12:41:31.583Z,2.0
2019-05-10T12:51:25.433Z,2.2
2019-05-10T13:01:31.714Z,1.8
2019-05-10T13:11:27.816Z,1.5
2019-05-10T13:21:30.025Z,1.3
2019-05-10T13:31:25.224Z,1.7
2019-05-10T13:41:26.502Z,1.7
2019-05-10T13:51:32.366Z,1.5
2019-05-10T14:01:27.106Z,1.5
2019-05-10T14:11:25.931Z,1.6
2019-05-10T14:21:25.835Z,2.0
2019-05-10T14:31:26.608Z,1.9
2019-05-10T14:41:25.267Z,3.3
2019-05-10T14:51:38.912Z,2.4
2019-05-10T15:01:25.636Z,2.8
2019-05-10T15:11:26.328Z,2.8
2019-05-10T15:21:26.508Z,2.0
2019-05-10T15:31:29.114Z,2.3
2019-05-10T15:41:26.573Z,2.4
2019-05-10T15:51:35.582Z,2.3
2019-05-10T16:01:26.842Z,2.0
2019-05-10T16:11:25.586Z,2.5
2019-05-10T16:21:26.410Z,3.0
2019-05-10T16:31:26.307Z,2.7
2019-05-10T16:41:27.034Z,2.3
2019-05-10T16:51:26.291Z,2.0
2019-05-10T17:01:27.634Z,1.9
2019-05-10T17:11:26.308Z,2.1
2019-05-10T17:21:25.222Z,3.4
2019-05-10T17:31:25.145Z,6.3
2019-05-10T17:41:27.122Z,5.1
2019-05-10T17:51:25.788Z,5.8
2019-05-10T18:01:27.426Z,6.0
2019-05-10T18:11:25.220Z,6.2
2019-05-10T18:21:26.521Z,7.1
2019-05-10T18:31:26.239Z,7.2
2019-05-10T18:41:26.649Z,7.6
2019-05-10T18:51:26.577Z,8.1
2019-05-10T19:01:26.661Z,8.8
2019-05-10T19:11:25.368Z,8.4
2019-05-10T19:21:30.582Z,8.7
2019-05-10T19:31:31.473Z,9.5
2019-05-10T19:41:27.335Z,10.7
2019-05-10T19:51:26.022Z,11.0
2019-05-10T20:01:25.756Z,11.7
2019-05-10T20:11:26.416Z,12.7
2019-05-10T20:21:26.975Z,13.5
2019-05-10T20:31:25.716Z,14.5
2019-05-10T20:41:26.638Z,13.0
2019-05-10T20:51:26.298Z,13.3
2019-05-10T21:01:26.531Z,13.3
2019-05-10T21:11:26.689Z,14.4
2019-05-10T21:21:26.483Z,15.9
2019-05-10T21:31:26.026Z,16.6
2019-05-10T21:41:32.065Z,16.6
2019-05-10T21:51:28.639Z,18.4
2019-05-10T22:01:26.122Z,17.3
2019-05-10T22:11:26.907Z,17.5
2019-05-10T22:21:26.684Z,19.0
2019-05-10T22:31:26.485Z,20.1
2019-05-10T22:41:28.162Z,21.8
2019-05-10T22:51:26.842Z,22.2
2019-05-10T23:01:26.407Z,24.6
2019-05-10T23:11:27.800Z,24.7
2019-05-10T23:21:27.345Z,24.5
2019-05-10T23:31:30.489Z,26.0
2019-05-10T23:41:26.015Z,25.7
2019-05-10T23:51:27.780Z,24.8
